Wetterdaten: aktuell Freitag, 08.05.2026 09:55
Datum Zeit Arbeit-Z. Temp. A. Bod.+5cm Temp. A. min Temp. A. max Bl.Temp +1m BTemp -5cm BTemp -10cm BTemp -20cm BTemp -50cm Feuchte I. Feuchte A. BlattFeu +1m BFeucht -5cm BFeucht-10cm BFeucht-20cm BFeucht-50cm Luftdruck Regen Wind Richtung Richtung Sonnenschein ET UV Solar Taupunkt Windchill Windböen Empfang
08.05.2026 09:55 21,7 °C 14,8 °C 13,9 °C 14,6 °C 14,8 °C 11,7 °C 11,7 °C 12,8 °C 13,3 °C 13,9 °C 49 % 75 % 0 lf 200 cb 192 cb 101 cb 79 cb 1014,4 hPa 0,0 l/m² 4,6 km/h (1 Bft) N-NW 342 ° 60 min 0,101 mm 1,9 UV-I 510 W/m² 10,4 °C 14,8 °C 9,7 km/h (2 Bft) 95,54 %
08.05.2026 08:55 21,7 °C 12,8 °C 12,2 °C 12,6 °C 12,8 °C 11,1 °C 11,1 °C 12,8 °C 13,3 °C 13,9 °C 49 % 80 % 0 lf 200 cb 192 cb 101 cb 79 cb 1014,2 hPa 0,0 l/m² 0,7 km/h (0 Bft) N 351 ° 50 min 0,051 mm 1,1 UV-I 295 W/m² 9,4 °C 12,8 °C 3,2 km/h (1 Bft) 94,02 %
08.05.2026 07:55 21,7 °C 10,2 °C 9,4 °C 9,8 °C 10,2 °C 11,1 °C 11,1 °C 13,3 °C 13,9 °C 13,9 °C 49 % 90 % 12 lf 200 cb 194 cb 101 cb 79 cb 1014,2 hPa 0,0 l/m² 1,1 km/h (1 Bft) O 83 ° 5 min 0,000 mm 0,0 UV-I 158 W/m² 8,6 °C 10,2 °C 3,2 km/h (1 Bft) 90,99 %
08.05.2026 06:55 21,7 °C 7,7 °C 7,2 °C 7,6 °C 7,7 °C 11,7 °C 11,7 °C 13,3 °C 13,9 °C 13,9 °C 48 % 94 % 13 lf 200 cb 191 cb 100 cb 79 cb 1014,1 hPa 0,0 l/m² 0,5 km/h (0 Bft) O 84 ° 0 min 0,000 mm 0,0 UV-I 56 W/m² 6,8 °C 7,7 °C 1,6 km/h (1 Bft) 98,29 %
08.05.2026 05:55 21,8 °C 6,8 °C 5,6 °C 6,8 °C 6,8 °C 11,7 °C 11,7 °C 13,3 °C 13,9 °C 13,9 °C 48 % 94 % 13 lf 200 cb 190 cb 99 cb 78 cb 1013,9 hPa 0,0 l/m² 0,2 km/h (0 Bft) S 182 ° 0 min 0,000 mm 0,0 UV-I 0 W/m² 5,9 °C 6,8 °C 1,6 km/h (1 Bft) 96,69 %
08.05.2026 04:55 21,9 °C 7,3 °C 6,1 °C 7,3 °C 7,4 °C 11,7 °C 11,7 °C 13,3 °C 13,9 °C 13,9 °C 49 % 94 % 12 lf 200 cb 188 cb 98 cb 78 cb 1013,8 hPa 0,0 l/m² 0,1 km/h (0 Bft) W-SW 257 ° 0 min 0,000 mm 0,0 UV-I 0 W/m² 6,4 °C 7,3 °C 1,6 km/h (1 Bft) 92,97 %
08.05.2026 03:55 21,9 °C 7,3 °C 6,1 °C 7,3 °C 7,4 °C 12,2 °C 12,2 °C 13,9 °C 13,9 °C 13,9 °C 49 % 94 % 10 lf 200 cb 187 cb 97 cb 78 cb 1013,7 hPa 0,0 l/m² 0,4 km/h (0 Bft) S 186 ° 0 min 0,000 mm 0,0 UV-I 0 W/m² 6,4 °C 7,3 °C 1,6 km/h (1 Bft) 97,39 %
08.05.2026 02:55 22,0 °C 8,3 °C 7,2 °C 8,3 °C 8,3 °C 12,2 °C 12,2 °C 13,9 °C 13,9 °C 13,9 °C 49 % 94 % 5 lf 200 cb 186 cb 96 cb 78 cb 1013,6 hPa 0,0 l/m² 0,0 km/h (0 Bft) S 186 ° 0 min 0,000 mm 0,0 UV-I 0 W/m² 7,4 °C 8,3 °C 0,0 km/h (0 Bft) 89,91 %
08.05.2026 01:55 22,1 °C 9,2 °C 7,8 °C 9,2 °C 9,3 °C 12,8 °C 12,8 °C 13,9 °C 13,9 °C 13,9 °C 49 % 93 % 2 lf 200 cb 185 cb 95 cb 78 cb 1013,9 hPa 0,0 l/m² 0,1 km/h (0 Bft) O-SO 115 ° 0 min 0,000 mm 0,0 UV-I 0 W/m² 8,1 °C 9,2 °C 1,6 km/h (1 Bft) 100,00 %
08.05.2026 00:55 22,2 °C 9,9 °C 8,9 °C 9,8 °C 9,9 °C 12,8 °C 12,8 °C 13,9 °C 13,9 °C 13,9 °C 49 % 93 % 1 lf 200 cb 184 cb 94 cb 77 cb 1014,3 hPa 0,0 l/m² 0,0 km/h (0 Bft) O-SO 115 ° 0 min 0,000 mm 0,0 UV-I 0 W/m² 8,8 °C 9,9 °C 0,0 km/h (0 Bft) 94,92 %
07.05.2026 23:55 22,3 °C 9,4 °C 8,3 °C 9,4 °C 9,5 °C 13,3 °C 13,3 °C 14,4 °C 13,9 °C 13,9 °C 49 % 94 % 2 lf 200 cb 183 cb 93 cb 77 cb 1014,3 hPa 0,0 l/m² 0,0 km/h (0 Bft) O-SO 115 ° 0 min 0,000 mm 0,0 UV-I 0 W/m² 8,5 °C 9,4 °C 0,0 km/h (0 Bft) 98,29 %
07.05.2026 22:55 22,4 °C 9,1 °C 8,3 °C 9,1 °C 9,2 °C 13,3 °C 13,3 °C 14,4 °C 13,9 °C 13,9 °C 49 % 93 % 3 lf 200 cb 179 cb 90 cb 76 cb 1014,1 hPa 0,0 l/m² 0,6 km/h (0 Bft) S-SW 192 ° 0 min 0,000 mm 0,0 UV-I 0 W/m² 8,0 °C 9,1 °C 3,2 km/h (1 Bft) 95,00 %
07.05.2026 21:55 22,3 °C 10,1 °C 8,9 °C 10,1 °C 10,2 °C 13,9 °C 13,9 °C 14,4 °C 13,9 °C 13,9 °C 49 % 92 % 1 lf 200 cb 177 cb 84 cb 76 cb 1013,8 hPa 0,0 l/m² 0,9 km/h (0 Bft) S-SW 192 ° 0 min 0,025 mm 0,0 UV-I 0 W/m² 8,9 °C 10,1 °C 3,2 km/h (1 Bft) 94,59 %
07.05.2026 20:55 22,5 °C 11,9 °C 10,6 °C 11,9 °C 12,3 °C 13,9 °C 13,9 °C 14,4 °C 13,9 °C 13,9 °C 48 % 88 % 0 lf 200 cb 175 cb 84 cb 75 cb 1013,4 hPa 0,0 l/m² 0,3 km/h (0 Bft) SW 215 ° 0 min 0,051 mm 0,0 UV-I 0 W/m² 10,0 °C 11,9 °C 1,6 km/h (1 Bft) 99,19 %
07.05.2026 19:55 22,6 °C 14,3 °C 12,8 °C 14,3 °C 14,6 °C 14,4 °C 14,4 °C 14,4 °C 13,9 °C 13,9 °C 48 % 75 % 0 lf 200 cb 176 cb 83 cb 75 cb 1013,0 hPa 0,0 l/m² 0,5 km/h (0 Bft) S-SW 212 ° 0 min 0,051 mm 0,0 UV-I 35 W/m² 9,9 °C 14,3 °C 3,2 km/h (1 Bft) 93,91 %
07.05.2026 18:55 22,7 °C 15,1 °C 13,9 °C 15,0 °C 15,1 °C 14,4 °C 14,4 °C 14,4 °C 13,9 °C 13,9 °C 48 % 73 % 0 lf 200 cb 175 cb 83 cb 75 cb 1012,8 hPa 0,0 l/m² 1,2 km/h (1 Bft) O-NO 63 ° 0 min 0,076 mm 0,0 UV-I 60 W/m² 10,3 °C 15,1 °C 3,2 km/h (1 Bft) 97,44 %
07.05.2026 17:55 22,8 °C 15,4 °C 13,9 °C 15,4 °C 15,6 °C 14,4 °C 14,4 °C 14,4 °C 13,9 °C 13,9 °C 48 % 71 % 0 lf 200 cb 175 cb 83 cb 75 cb 1012,8 hPa 0,0 l/m² 2,6 km/h (1 Bft) N-NW 340 ° 15 min 0,102 mm 0,0 UV-I 77 W/m² 10,2 °C 15,4 °C 6,4 km/h (2 Bft) 94,02 %
07.05.2026 16:55 22,7 °C 15,5 °C 14,4 °C 15,4 °C 15,5 °C 14,4 °C 14,4 °C 14,4 °C 13,9 °C 13,9 °C 48 % 71 % 0 lf 200 cb 175 cb 83 cb 75 cb 1012,6 hPa 0,0 l/m² 1,1 km/h (1 Bft) NW 319 ° 30 min 0,152 mm 0,5 UV-I 105 W/m² 10,3 °C 15,5 °C 4,8 km/h (1 Bft) 98,23 %
07.05.2026 15:55 22,7 °C 15,7 °C 14,4 °C 15,7 °C 15,9 °C 14,4 °C 14,4 °C 13,9 °C 13,9 °C 13,9 °C 48 % 67 % 0 lf 200 cb 174 cb 83 cb 74 cb 1012,7 hPa 0,0 l/m² 3,5 km/h (1 Bft) N-NW 340 ° 60 min 0,152 mm 0,9 UV-I 172 W/m² 9,6 °C 15,7 °C 12,9 km/h (3 Bft) 99,16 %
07.05.2026 14:55 22,7 °C 15,1 °C 15,0 °C 14,7 °C 15,1 °C 13,9 °C 13,9 °C 13,9 °C 13,9 °C 14,4 °C 49 % 72 % 0 lf 200 cb 173 cb 83 cb 74 cb 1012,8 hPa 0,0 l/m² 1,9 km/h (1 Bft) W-SW 255 ° 45 min 0,051 mm 2,4 UV-I 392 W/m² 10,1 °C 15,1 °C 4,8 km/h (1 Bft) 93,28 %
07.05.2026 13:55 22,6 °C 13,2 °C 12,2 °C 13,2 °C 13,4 °C 13,9 °C 13,9 °C 13,9 °C 13,9 °C 14,4 °C 50 % 84 % 0 lf 200 cb 173 cb 83 cb 74 cb 1012,8 hPa 0,0 l/m² 0,3 km/h (0 Bft) W-SW 239 ° 0 min 0,076 mm 0,0 UV-I 49 W/m² 10,6 °C 13,2 °C 3,2 km/h (1 Bft) 94,87 %
07.05.2026 12:55 22,4 °C 13,2 °C 11,7 °C 13,1 °C 13,2 °C 13,9 °C 13,9 °C 13,9 °C 13,9 °C 14,4 °C 51 % 80 % 0 lf 200 cb 176 cb 83 cb 74 cb 1012,8 hPa 0,0 l/m² 0,9 km/h (0 Bft) W-SW 252 ° 10 min 0,254 mm 0,9 UV-I 144 W/m² 9,8 °C 13,2 °C 3,2 km/h (1 Bft) 100,00 %
07.05.2026 11:55 22,3 °C 14,2 °C 12,2 °C 14,2 °C 14,4 °C 13,3 °C 13,3 °C 13,9 °C 13,9 °C 14,4 °C 51 % 79 % 0 lf 200 cb 174 cb 83 cb 74 cb 1012,4 hPa 0,0 l/m² 4,3 km/h (1 Bft) SW 232 ° 60 min 0,077 mm 1,7 UV-I 244 W/m² 10,6 °C 14,2 °C 12,9 km/h (3 Bft) 94,96 %
07.05.2026 10:55 22,2 °C 12,6 °C 10,6 °C 12,6 °C 12,7 °C 12,8 °C 12,8 °C 13,9 °C 13,9 °C 14,4 °C 50 % 84 % 0 lf 200 cb 174 cb 83 cb 74 cb 1012,2 hPa 0,0 l/m² 1,9 km/h (1 Bft) N-NW 334 ° 25 min 0,076 mm 0,8 UV-I 121 W/m² 10,0 °C 12,6 °C 4,8 km/h (1 Bft) 98,31 %
07.05.2026 10:00 22,3 °C 11,8 °C 10,0 °C 11,7 °C 11,8 °C 12,8 °C 12,8 °C 13,9 °C 13,9 °C 14,4 °C 50 % 87 % 2 lf 200 cb 176 cb 83 cb 74 cb 1012,0 hPa 0,0 l/m² 2,5 km/h (1 Bft) N-NW 347 ° 0 min 0,076 mm 0,0 UV-I 76 W/m² 9,7 °C 11,8 °C 8,0 km/h (2 Bft) 96,58 %
_ Min-Zeit 06:50 05:45 05:45 05:45 05:50 07:05 07:05 08:30 08:25 15:30 18:40 15:20 10:10 10:00 13:20 10:00 10:00 10:00 - 20:05 - - - - - - 05:45 05:45 20:20 02:55
Minimum _ 21,7 °C 6,8 °C 5,6 °C 6,8 °C 6,8 °C 11,1 °C 11,1 °C 12,8 °C 13,3 °C 13,9 °C 47 % 67 % 0 lf 200 cb 172 cb 83 cb 74 cb 1012,0 hPa - 0,0 km/h (0 Bft) - - - - - - 5,9 °C 6,8 °C 0,0 km/h (0 Bft) 89,91 %
_ Max-Zeit 17:20 15:45 14:55 15:50 15:45 15:55 15:55 16:40 10:00 10:00 11:00 04:15 05:20 10:00 07:45 07:55 09:35 09:55 10:00 12:10 - - 10:30 12:00 12:00 11:40 14:15 15:45 12:15 10:45
Maximum _ 22,8 °C 15,9 °C 15,0 °C 15,8 °C 15,9 °C 14,4 °C 14,4 °C 14,4 °C 13,9 °C 14,4 °C 51 % 95 % 13 lf 200 cb 194 cb 101 cb 80 cb 1014,4 hPa 0,0 l/m² 6,8 km/h
W-SW (2 Bft)
- - 5 min 0,254 mm 3,8 UV-I 1018 W/m² 11,1 °C 15,9 °C 14,5 km/h
S-SO (3 Bft)
100,00 %
Durchschnitt _ 22,3 °C 11,6 °C 10,5 °C 11,5 °C 11,7 °C 13,0 °C 13,0 °C 13,9 °C 13,9 °C 14,0 °C 49 % 85 % 3 lf 200 cb 181 cb 89 cb 76 cb 1013,3 hPa #0,0 l/m² 1,4 km/h (1 Bft) N - #1:55 h #0,152 mm 1,1 UV-I 193 W/m² 9,0 °C 11,6 °C 4,1 km/h (1 Bft) 95,93 %
copy; 2009 Dieter Kraft